.
WxDataArchive / Data Records for 2013-08-09
2013-08-08 August 2013 2013-08-10

Data Records for Friday, 09 August 2013

Time	Temp	Chill	HIndex	Humid	Dewpt	 Wind 	HiWind	WindDir	Rain 	Barom 
-----	----	-----	------	-----	-----	------	------	-------	-----	----- 
00:00	70.6	70.6	70.6	87	66.5	0	0	---	0.00	29.937 
00:05	70.6	70.6	70.6	87	66.5	0	0	---	0.00	29.937 
00:10	70.4	70.4	70.4	87	66.3	0	0	---	0.00	29.937 
00:15	70.4	70.4	70.4	87	66.3	0	0	---	0.00	29.932 
00:20	70.4	70.4	70.4	87	66.3	0	0	---	0.00	29.932 
00:25	70.3	70.3	70.3	87	66.2	0	0	---	0.00	29.932 
00:30	70.3	70.3	70.3	87	66.2	0	0	---	0.00	29.934 
00:35	70.3	70.3	70.3	88	66.6	0	1	90	0.00	29.934 
00:40	70.1	70.1	70.1	88	66.4	0	1	90	0.00	29.934 
00:45	70.1	70.1	70.1	88	66.4	0	0	---	0.00	29.931 
00:50	70.1	70.1	70.1	88	66.4	0	1	90	0.00	29.931 
00:55	69.9	69.9	69.9	88	66.2	0	1	90	0.00	29.931 
01:00	69.9	69.9	69.9	88	66.2	0	0	---	0.00	29.932 
01:05	69.9	69.9	69.9	88	66.2	0	0	---	0.00	29.932 
01:10	69.8	69.8	69.8	88	66.1	0	0	---	0.00	29.932 
01:15	69.8	69.8	69.8	88	66.1	0	0	---	0.00	29.937 
01:20	69.8	69.8	69.8	88	66.1	0	0	---	0.00	29.937 
01:25	69.6	69.6	69.6	89	66.2	0	0	---	0.00	29.937 
01:30	69.6	69.6	69.6	89	66.2	0	0	---	0.00	29.936 
01:35	69.6	69.6	69.6	89	66.2	0	0	---	0.00	29.936 
01:40	69.6	69.6	69.6	89	66.2	0	0	---	0.00	29.936 
01:45	69.6	69.6	69.6	89	66.2	0	0	---	0.00	29.937 
01:50	69.6	69.6	69.6	89	66.2	0	0	---	0.00	29.937 
01:55	69.6	69.6	69.6	89	66.2	0	0	---	0.00	29.937 
02:00	69.6	69.6	69.6	89	66.2	0	0	---	0.00	29.934 
02:05	69.6	69.6	69.6	89	66.2	0	0	---	0.00	29.934 
02:10	69.6	69.6	69.6	89	66.2	0	0	---	0.00	29.934 
02:15	69.6	69.6	69.6	89	66.2	0	0	---	0.00	29.930 
02:20	69.6	69.6	69.6	89	66.2	0	0	---	0.00	29.930 
02:25	69.6	69.6	69.6	89	66.2	0	0	---	0.00	29.930 
02:30	69.4	69.4	69.4	89	66.0	0	0	---	0.00	29.925 
02:35	69.4	69.4	69.4	89	66.0	0	0	---	0.00	29.925 
02:40	69.4	69.4	69.4	89	66.0	0	0	---	0.00	29.925 
02:45	69.4	69.4	69.4	89	66.0	0	0	---	0.00	29.921 
02:50	69.4	69.4	69.4	89	66.0	0	1	90	0.00	29.921 
02:55	69.4	69.4	69.4	89	66.0	0	0	---	0.00	29.921 
03:00	69.4	69.4	69.4	90	66.3	0	0	---	0.00	29.922 
03:05	69.4	69.4	69.4	90	66.3	0	0	---	0.00	29.922 
03:10	69.4	69.4	69.4	89	66.0	0	0	---	0.00	29.922 
03:15	69.4	69.4	69.4	89	66.0	0	2	90	0.00	29.911 
03:20	69.3	69.3	69.3	89	65.9	0	2	90	0.00	29.911 
03:25	69.3	69.3	69.3	88	65.6	0	2	90	0.00	29.911 
03:30	69.3	69.3	69.3	88	65.6	0	1	90	0.00	29.923 
03:35	69.3	69.3	69.3	88	65.6	0	1	90	0.00	29.923 
03:40	69.3	69.3	69.3	88	65.6	0	1	90	0.00	29.923 
03:45	69.3	69.3	69.3	88	65.6	0	0	---	0.00	29.923 
03:50	69.1	69.1	69.1	88	65.4	0	0	---	0.00	29.923 
03:55	69.1	69.1	69.1	88	65.4	0	0	---	0.00	29.923 
04:00	69.1	69.1	69.1	88	65.4	0	0	---	0.00	29.924 
04:05	69.1	69.1	69.1	88	65.4	0	1	90	0.00	29.924 
04:10	69.1	69.1	69.1	88	65.4	0	1	90	0.00	29.924 
04:15	69.1	69.1	69.1	88	65.4	0	2	90	0.00	29.918 
04:20	68.9	68.9	68.9	88	65.2	0	1	90	0.00	29.918 
04:25	68.9	68.9	68.9	88	65.2	0	0	---	0.00	29.918 
04:30	68.8	68.8	68.8	88	65.1	0	0	---	0.00	29.926 
04:35	68.6	68.6	68.6	88	64.9	0	2	90	0.00	29.926 
04:40	68.6	68.6	68.6	88	64.9	0	0	---	0.00	29.926 
04:45	68.6	68.6	68.6	88	64.9	0	0	---	0.00	29.928 
04:50	68.4	68.4	68.4	88	64.7	0	0	---	0.00	29.928 
04:55	68.4	68.4	68.4	88	64.7	0	0	---	0.00	29.928 
05:00	68.3	68.3	68.3	88	64.6	0	0	---	0.00	29.925 
05:05	67.9	67.9	67.9	88	64.2	0	0	---	0.00	29.925 
05:10	67.6	67.6	67.6	88	63.9	0	1	90	0.00	29.925 
05:15	67.4	67.4	67.4	88	63.7	0	0	---	0.00	29.933 
05:20	67.1	67.1	67.1	87	63.1	0	0	---	0.00	29.933 
05:25	66.9	66.9	66.9	87	62.9	0	0	---	0.00	29.933 
05:30	66.8	66.8	66.8	86	62.5	0	1	90	0.00	29.938 
05:35	66.8	66.8	66.8	86	62.5	0	0	---	0.00	29.938 
05:40	66.6	66.6	66.6	86	62.3	0	0	---	0.00	29.938 
05:45	66.6	66.6	66.6	86	62.3	0	0	---	0.00	29.939 
05:50	66.6	66.6	66.6	86	62.3	0	0	---	0.00	29.939 
05:55	66.6	66.6	66.6	86	62.3	0	0	---	0.00	29.939 
06:00	66.6	66.6	66.6	86	62.3	0	1	90	0.00	29.941 
06:05	66.6	66.6	66.6	86	62.3	0	0	---	0.00	29.941 
06:10	66.6	66.6	66.6	86	62.3	0	0	---	0.00	29.941 
06:15	66.6	66.6	66.6	87	62.6	0	0	---	0.00	29.938 
06:20	66.6	66.6	66.6	87	62.6	0	0	---	0.00	29.938 
06:25	66.6	66.6	66.6	87	62.6	0	1	90	0.00	29.938 
06:30	66.6	66.6	66.6	87	62.6	0	0	---	0.00	29.942 
06:35	66.6	66.6	66.6	87	62.6	0	0	---	0.00	29.942 
06:40	66.6	66.6	66.6	88	62.9	0	0	---	0.00	29.942 
06:45	66.6	66.6	66.6	88	62.9	0	0	---	0.00	29.942 
06:50	66.4	66.4	66.4	88	62.7	0	0	---	0.00	29.942 
06:55	66.4	66.4	66.4	88	62.7	0	0	---	0.00	29.942 
07:00	66.4	66.4	66.4	88	62.7	0	1	90	0.00	29.940 
07:05	66.3	66.3	66.3	88	62.6	0	1	90	0.00	29.940 
07:10	66.1	66.1	66.1	88	62.4	0	0	---	0.00	29.940 
07:15	66.1	66.1	66.1	88	62.4	0	0	---	0.00	29.943 
07:20	66.1	66.1	66.1	87	62.1	0	1	90	0.00	29.943 
07:25	66.1	66.1	66.1	88	62.4	0	0	---	0.00	29.943 
07:30	66.1	66.1	66.1	87	62.1	0	0	---	0.00	29.953 
07:35	66.3	66.3	66.3	87	62.3	0	0	---	0.00	29.953 
07:40	66.1	66.1	66.1	86	61.8	0	0	---	0.00	29.953 
07:45	66.1	66.1	66.1	86	61.8	0	0	---	0.00	29.957 
07:50	66.1	66.1	66.1	84	61.1	0	0	---	0.00	29.957 
07:55	66.1	66.1	66.1	84	61.1	0	0	---	0.00	29.957 
08:00	66.1	66.1	66.1	82	60.4	0	0	---	0.00	29.963 
08:05	66.4	66.4	66.4	81	60.4	0	0	---	0.00	29.963 
08:10	66.8	66.8	66.8	81	60.8	0	0	---	0.00	29.963 
08:15	66.9	66.9	66.9	80	60.5	0	0	---	0.00	29.965 
08:20	67.1	67.1	67.1	78	60.0	0	1	90	0.00	29.965 
08:25	67.4	67.4	67.4	78	60.3	0	1	90	0.00	29.965 
08:30	67.6	67.6	67.6	77	60.1	0	1	90	0.00	29.964 
08:35	67.8	67.8	67.8	76	59.9	0	2	90	0.00	29.964 
08:40	67.9	67.9	67.9	76	60.0	0	1	90	0.00	29.964 
08:45	67.9	67.9	67.9	76	60.0	0	2	90	0.00	29.966 
08:50	68.1	68.1	68.1	76	60.2	0	2	90	0.00	29.966 
08:55	68.1	68.1	68.1	74	59.5	0	2	90	0.00	29.966 
09:00	68.3	68.3	68.3	74	59.7	0	1	90	0.00	29.970 
09:05	68.4	68.4	68.4	72	59.0	0	2	90	0.00	29.970 
09:10	68.6	68.6	68.6	70	58.4	0	2	90	0.00	29.970 
09:15	68.8	68.8	68.8	69	58.2	0	3	90	0.00	29.969 
09:20	69.1	69.1	69.1	68	58.1	0	1	90	0.00	29.969 
09:25	69.4	69.4	69.4	66	57.5	0	1	90	0.00	29.969 
09:30	69.9	69.9	69.9	67	58.4	0	0	---	0.00	29.967 
09:35	70.1	70.1	70.1	65	57.8	0	1	90	0.00	29.967 
09:40	70.4	70.4	70.4	66	58.5	0	0	---	0.00	29.967 
09:45	70.4	70.4	70.4	63	57.2	0	0	---	0.00	29.968 
09:50	70.6	70.6	70.6	62	56.9	0	2	90	0.00	29.968 
09:55	70.9	70.9	70.9	64	58.1	0	1	90	0.00	29.968 
10:00	71.3	71.3	71.3	61	57.1	0	1	90	0.00	29.965 
10:05	71.5	71.5	71.5	59	56.4	0	1	90	0.00	29.965 
10:10	71.3	71.3	71.3	57	55.3	0	2	90	0.00	29.965 
10:15	71.5	71.5	71.5	57	55.5	0	1	90	0.00	29.971 
10:20	71.6	71.6	71.6	60	57.0	0	2	90	0.00	29.971 
10:25	71.8	71.8	71.8	60	57.2	0	1	90	0.00	29.971 
10:30	72.1	72.1	72.1	59	57.0	0	2	90	0.00	29.976 
10:35	72.7	72.7	72.7	59	57.5	0	1	90	0.00	29.976 
10:40	72.8	72.8	72.8	61	58.6	0	2	90	0.00	29.976 
10:45	72.5	72.5	72.5	56	55.9	1	3	90	0.00	29.982 
10:50	72.7	72.7	72.7	57	56.6	0	1	90	0.00	29.982 
10:55	73.0	73.0	73.0	56	56.4	0	2	90	0.00	29.982 
11:00	73.5	73.5	73.5	56	56.8	0	3	90	0.00	29.982 
11:05	74.0	74.0	74.0	56	57.3	0	2	90	0.00	29.982 
11:10	74.2	74.2	74.2	54	56.5	1	3	90	0.00	29.982 
11:15	74.6	74.6	74.6	56	57.8	1	3	90	0.00	29.982 
11:20	74.7	74.7	74.7	56	57.9	0	1	90	0.00	29.982 
11:25	75.1	75.1	77.5	57	58.8	0	3	90	0.00	29.982 
11:30	75.3	75.3	77.7	56	58.5	0	3	90	0.00	29.982 
11:35	75.6	75.6	77.9	53	57.2	0	1	90	0.00	29.982 
11:40	76.1	76.1	78.1	54	58.2	0	3	90	0.00	29.982 
11:45	76.5	76.5	78.4	53	58.1	1	5	90	0.00	29.980 
11:50	76.5	76.5	78.4	54	58.6	1	2	90	0.00	29.980 
11:55	76.5	76.5	78.4	56	59.6	1	4	90	0.00	29.980 
12:00	75.8	75.8	77.9	57	59.5	1	4	90	0.00	29.982 
12:05	75.8	75.8	77.9	59	60.4	0	3	90	0.00	29.982 
12:10	76.5	76.5	78.4	58	60.6	0	2	90	0.00	29.982 
12:15	76.8	76.8	78.6	57	60.4	1	3	90	0.00	29.981 
12:20	76.8	76.8	78.6	59	61.4	0	1	90	0.00	29.981 
12:25	76.7	76.7	78.5	58	60.8	0	2	90	0.00	29.981 
12:30	76.7	76.7	78.5	58	60.8	0	1	90	0.00	29.977 
12:35	76.7	76.7	78.5	58	60.8	0	2	90	0.00	29.977 
12:40	77.0	77.0	78.8	59	61.6	0	2	90	0.00	29.977 
12:45	77.4	77.4	79.1	58	61.4	0	2	90	0.00	29.977 
12:50	77.7	77.7	79.4	59	62.2	0	1	90	0.00	29.977 
12:55	76.8	76.8	78.6	54	58.9	1	2	90	0.00	29.977 
13:00	76.5	76.5	78.4	54	58.6	0	2	90	0.00	29.973 
13:05	77.0	77.0	78.8	58	61.1	1	2	90	0.00	29.973 
13:10	77.4	77.4	79.1	57	61.0	1	4	90	0.00	29.973 
13:15	77.9	77.9	79.4	56	60.9	0	2	90	0.00	29.968 
13:20	78.1	78.1	79.6	56	61.1	0	3	90	0.00	29.968 
13:25	78.3	78.3	79.8	56	61.3	1	3	90	0.00	29.968 
13:30	78.3	78.3	79.7	54	60.3	1	3	90	0.00	29.971 
13:35	78.3	78.3	79.7	54	60.3	1	2	90	0.00	29.971 
13:40	78.6	78.6	80.0	55	61.1	0	1	90	0.00	29.971 
13:45	79.4	79.4	80.9	57	62.8	0	3	90	0.00	29.969 
13:50	79.0	79.0	80.3	54	60.9	1	3	90	0.00	29.969 
13:55	78.5	78.5	79.8	54	60.4	1	4	315	0.00	29.969 
14:00	78.5	78.5	79.8	54	60.4	1	3	338	0.00	29.967 
14:05	78.8	78.8	80.2	56	61.8	1	3	90	0.00	29.967 
14:10	79.2	79.2	80.3	52	60.0	1	3	22	0.00	29.967 
14:15	79.2	79.2	80.2	51	59.5	1	3	270	0.00	29.969 
14:20	79.2	79.2	80.3	52	60.0	1	4	338	0.00	29.969 
14:25	79.4	79.4	80.6	54	61.3	1	4	248	0.00	29.969 
14:30	79.6	79.6	80.7	53	60.9	0	1	248	0.00	29.968 
14:35	79.9	79.9	80.8	51	60.1	1	3	315	0.00	29.968 
14:40	79.9	79.9	80.4	47	57.8	2	3	315	0.00	29.968 
14:45	79.8	79.8	80.6	50	59.5	1	3	315	0.00	29.968 
14:50	80.3	80.3	81.1	50	59.9	0	2	315	0.00	29.968 
14:55	80.5	80.5	81.3	50	60.1	0	2	315	0.00	29.968 
15:00	80.7	80.7	81.7	52	61.4	1	3	315	0.00	29.965 
15:05	80.1	80.1	81.0	51	60.3	1	4	270	0.00	29.965 
15:10	80.1	80.1	81.0	51	60.3	1	2	270	0.00	29.965 
15:15	80.3	80.3	81.1	50	59.9	0	5	270	0.00	29.963 
15:20	80.7	80.7	81.2	48	59.2	1	3	315	0.00	29.963 
15:25	81.1	81.1	81.5	47	58.9	1	4	315	0.00	29.963 
15:30	81.1	81.1	81.6	48	59.5	2	4	315	0.00	29.963 
15:35	80.9	80.9	81.5	49	59.9	2	4	270	0.00	29.963 
15:40	80.9	80.9	81.5	49	59.9	0	2	270	0.00	29.963 
15:45	80.5	80.5	81.3	50	60.1	1	3	270	0.00	29.961 
15:50	80.1	80.1	80.9	50	59.8	1	4	270	0.00	29.961 
15:55	80.7	80.7	81.4	50	60.3	1	4	270	0.00	29.961 
16:00	81.2	81.2	82.1	51	61.3	0	2	270	0.00	29.959 
16:05	81.8	81.8	82.1	47	59.6	1	2	270	0.00	29.959 
16:10	81.8	81.8	81.9	45	58.4	1	4	270	0.00	29.959 
16:15	81.6	81.6	82.1	48	60.0	1	3	270	0.00	29.958 
16:20	81.6	81.6	81.9	47	59.4	1	3	270	0.00	29.958 
16:25	81.2	81.2	81.7	48	59.6	2	4	315	0.00	29.958 
16:30	81.4	81.4	81.8	47	59.2	1	3	315	0.00	29.953 
16:35	81.2	81.2	81.5	46	58.4	1	4	315	0.00	29.953 
16:40	81.4	81.4	81.9	48	59.8	1	3	315	0.00	29.953 
16:45	81.4	81.4	82.0	49	60.4	1	5	315	0.00	29.954 
16:50	81.2	81.2	81.6	47	59.0	2	5	270	0.00	29.954 
16:55	81.2	81.2	81.7	48	59.6	2	4	315	0.00	29.954 
17:00	81.2	81.2	81.7	48	59.6	1	3	315	0.00	29.956 
17:05	81.4	81.4	82.0	49	60.4	0	2	315	0.00	29.956 
17:10	81.4	81.4	81.9	48	59.8	1	3	315	0.00	29.956 
17:15	81.2	81.2	81.7	48	59.6	1	2	315	0.00	29.954 
17:20	81.6	81.6	82.2	49	60.6	0	2	315	0.00	29.954 
17:25	82.2	82.2	82.7	48	60.5	0	2	315	0.00	29.954 
17:30	81.8	81.8	82.3	48	60.2	2	5	338	0.00	29.954 
17:35	81.4	81.4	81.9	48	59.8	1	3	338	0.00	29.954 
17:40	81.2	81.2	81.7	48	59.6	0	1	338	0.00	29.954 
17:45	80.7	80.7	81.3	49	59.7	0	2	338	0.00	29.959 
17:50	80.1	80.1	81.1	52	60.9	1	5	338	0.00	29.959 
17:55	79.9	79.9	80.7	50	59.6	2	4	338	0.00	29.959 
18:00	80.1	80.1	80.8	49	59.2	1	3	292	0.00	29.961 
18:05	80.1	80.1	81.0	51	60.3	0	1	292	0.00	29.961 
18:10	80.1	80.1	80.9	50	59.8	1	3	292	0.00	29.961 
18:15	80.5	80.5	81.3	50	60.1	2	5	292	0.00	29.963 
18:20	80.1	80.1	80.9	50	59.8	1	4	292	0.00	29.963 
18:25	79.9	79.9	80.8	51	60.1	1	3	292	0.00	29.963 
18:30	79.9	79.9	80.8	51	60.1	1	4	292	0.00	29.962 
18:35	79.8	79.8	80.7	51	60.0	0	3	292	0.00	29.962 
18:40	79.6	79.6	80.5	50	59.3	1	4	315	0.00	29.962 
18:45	79.6	79.6	80.6	52	60.4	0	2	315	0.00	29.956 
18:50	79.4	79.4	80.5	52	60.2	1	4	338	0.00	29.956 
18:55	79.4	79.4	80.5	52	60.2	1	2	338	0.00	29.956 
19:00	79.0	79.0	80.2	53	60.4	0	2	338	0.00	29.957 
19:05	78.8	78.8	80.1	54	60.7	1	3	338	0.00	29.957 
19:10	78.5	78.5	79.9	55	61.0	1	2	338	0.00	29.957 
19:15	78.1	78.1	79.5	55	60.6	0	2	338	0.00	29.958 
19:20	77.9	77.9	79.4	56	60.9	0	3	338	0.00	29.958 
19:25	77.7	77.7	79.3	56	60.7	0	2	338	0.00	29.958 
19:30	77.6	77.6	79.2	56	60.6	0	3	338	0.00	29.955 
19:35	77.6	77.6	79.2	57	61.1	0	1	338	0.00	29.955 
19:40	77.4	77.4	79.1	57	61.0	0	2	338	0.00	29.955 
19:45	77.2	77.2	78.9	57	60.8	0	1	338	0.00	29.963 
19:50	77.0	77.0	78.7	57	60.6	0	1	338	0.00	29.963 
19:55	77.0	77.0	78.8	58	61.1	0	1	338	0.00	29.963 
20:00	76.8	76.8	78.6	58	60.9	0	1	338	0.00	29.969 
20:05	76.7	76.7	78.5	58	60.8	0	1	338	0.00	29.969 
20:10	76.5	76.5	78.4	58	60.6	0	1	338	0.00	29.969 
20:15	76.3	76.3	78.2	58	60.4	0	1	338	0.00	29.969 
20:20	76.1	76.1	78.1	58	60.2	0	1	338	0.00	29.969 
20:25	76.1	76.1	78.1	58	60.2	0	1	338	0.00	29.969 
20:30	76.0	76.0	78.0	58	60.1	0	1	338	0.00	29.971 
20:35	75.8	75.8	77.9	58	59.9	0	0	---	0.00	29.971 
20:40	75.6	75.6	77.8	59	60.2	0	1	338	0.00	29.971 
20:45	75.4	75.4	77.6	60	60.5	0	0	---	0.00	29.978 
20:50	75.4	75.4	77.6	60	60.5	0	0	---	0.00	29.978 
20:55	75.3	75.3	77.5	61	60.9	0	0	---	0.00	29.978 
21:00	74.9	74.9	74.9	61	60.5	0	0	---	0.00	29.978 
21:05	74.7	74.7	74.7	62	60.8	0	0	---	0.00	29.978 
21:10	74.4	74.4	74.4	62	60.5	0	0	---	0.00	29.978 
21:15	74.2	74.2	74.2	63	60.8	0	0	---	0.00	29.982 
21:20	74.0	74.0	74.0	64	61.0	0	0	---	0.00	29.982 
21:25	73.7	73.7	73.7	65	61.2	0	0	---	0.00	29.982 
21:30	73.5	73.5	73.5	65	61.0	0	0	---	0.00	29.985 
21:35	73.2	73.2	73.2	66	61.1	0	0	---	0.00	29.985 
21:40	73.0	73.0	73.0	67	61.4	0	0	---	0.00	29.985 
21:45	72.8	72.8	72.8	68	61.6	0	0	---	0.00	29.984 
21:50	72.7	72.7	72.7	69	61.9	0	0	---	0.00	29.984 
21:55	72.5	72.5	72.5	69	61.7	0	0	---	0.00	29.984 
22:00	72.3	72.3	72.3	70	62.0	0	0	---	0.00	29.990 
22:05	72.1	72.1	72.1	70	61.8	0	0	---	0.00	29.990 
22:10	72.0	72.0	72.0	71	62.1	0	0	---	0.00	29.990 
22:15	71.8	71.8	71.8	72	62.3	0	0	---	0.00	29.995 
22:20	71.8	71.8	71.8	72	62.3	0	0	---	0.00	29.995 
22:25	71.6	71.6	71.6	72	62.1	0	0	---	0.00	29.995 
22:30	71.6	71.6	71.6	73	62.5	0	0	---	0.00	29.996 
22:35	71.5	71.5	71.5	73	62.4	0	0	---	0.00	29.996 
22:40	71.5	71.5	71.5	74	62.8	0	0	---	0.00	29.996 
22:45	71.3	71.3	71.3	74	62.6	0	0	---	0.00	29.998 
22:50	71.3	71.3	71.3	74	62.6	0	0	---	0.00	29.998 
22:55	71.1	71.1	71.1	75	62.8	0	0	---	0.00	29.998 
23:00	71.1	71.1	71.1	75	62.8	0	0	---	0.00	30.000 
23:05	70.9	70.9	70.9	75	62.6	0	0	---	0.00	30.000 
23:10	70.8	70.8	70.8	76	62.8	0	0	---	0.00	30.000 
23:15	70.8	70.8	70.8	76	62.8	0	0	---	0.00	30.006 
23:20	70.6	70.6	70.6	76	62.7	0	0	---	0.00	30.006 
23:25	70.4	70.4	70.4	76	62.5	0	0	---	0.00	30.006 
23:30	70.3	70.3	70.3	76	62.4	0	0	---	0.00	30.004 
23:35	70.3	70.3	70.3	77	62.7	0	0	---	0.00	30.004 
23:40	70.1	70.1	70.1	77	62.5	0	0	---	0.00	30.004 
23:45	70.1	70.1	70.1	77	62.5	0	0	---	0.00	30.002 
23:50	69.9	69.9	69.9	78	62.7	0	0	---	0.00	30.002 
23:55	69.9	69.9	69.9	78	62.7	0	0	---	0.00	30.002 

CoCoRaHS
IN-AL-39
A2 Web Hosting
Creative Commons License
GoDaddy
search engine by freefind advanced

loaded 2018-11-17 14:01:29 • last modified 2010-11-18 10:43:29
Privacy PolicyDisclaimer
• wx.awcolley.com is powered by PmWiki v.2002016 •
• all content (unless otherwise noted) © 2018 A W Colley